Time;durP1;ratioP1;P1;durP2;ratioP2;P2;SDS_P1;SDS_P2;PMS_P1;PMS_P2;Temp;Humidity;BMP_temperature;BMP_pressure;BME280_temperature;BME280_humidity;BME280_pressure;Samples;Min_cycle;Max_cycle;Signal;HPM_P1;HPM_P2
2022/10/17 00:02:13;;;;;;;0.63;0.63;;;;;;;13.40;45.53;96411.66;5106030;28;20439;-65
2022/10/17 00:04:40;;;;;;;0.20;0.20;;;;;;;13.21;45.51;96403.94;5099261;28;21125;-67
2022/10/17 00:07:07;;;;;;;0.20;0.20;;;;;;;13.26;46.00;96405.06;5102551;28;21180;-64
2022/10/17 00:09:33;;;;;;;0.30;0.30;;;;;;;13.29;45.54;96388.81;5095218;28;21116;-67
2022/10/17 00:12:01;;;;;;;0.93;0.93;;;;;;;13.40;45.35;96411.66;5108692;28;20449;-65
2022/10/17 00:14:28;;;;;;;0.47;0.47;;;;;;;13.38;45.62;96403.19;5101623;28;20535;-64
2022/10/17 00:16:55;;;;;;;0.57;0.57;;;;;;;13.59;45.35;96405.16;5100172;28;20464;-65
2022/10/17 00:19:21;;;;;;;0.40;0.40;;;;;;;13.49;45.57;96404.97;5090904;28;20812;-67
2022/10/17 00:21:49;;;;;;;0.60;0.60;;;;;;;13.29;45.73;96409.88;5088465;28;20434;-67
2022/10/17 00:24:16;;;;;;;0.10;0.10;;;;;;;13.30;45.65;96411.47;5093609;28;20449;-65
2022/10/17 00:26:42;;;;;;;0.53;0.53;;;;;;;13.02;46.67;96410.44;5107415;28;20483;-66
2022/10/17 00:29:09;;;;;;;0.27;0.27;;;;;;;13.12;45.92;96410.63;5094642;28;20445;-66
2022/10/17 00:31:36;;;;;;;0.50;0.50;;;;;;;12.69;47.01;96412.06;5090865;28;20437;-65
2022/10/17 00:34:03;;;;;;;0.67;0.67;;;;;;;12.91;46.58;96410.41;5098445;28;20444;-64
2022/10/17 00:36:30;;;;;;;0.73;0.50;;;;;;;12.99;46.15;96410.06;5102212;28;20938;-65
2022/10/17 00:38:58;;;;;;;3.10;2.43;;;;;;;12.98;46.44;96416.34;5097141;28;20445;-65
2022/10/17 00:41:28;;;;;;;1.17;1.17;;;;;;;12.93;46.38;96413.63;5090375;28;20886;-65
2022/10/17 00:44:25;;;;;;;1.20;0.70;;;;;;;12.89;46.30;96400.13;5091708;28;20490;-66
2022/10/17 00:46:52;;;;;;;0.10;0.10;;;;;;;12.98;46.61;96419.78;5081822;28;20496;-67
2022/10/17 00:49:21;;;;;;;0.83;0.83;;;;;;;13.00;46.10;96423.00;5097867;27;20491;-66
2022/10/17 00:51:51;;;;;;;2.00;1.30;;;;;;;13.03;46.07;96417.28;5095818;28;20982;-65
2022/10/17 00:54:23;;;;;;;0.40;0.40;;;;;;;13.12;45.93;96415.88;5092006;28;21015;-65
2022/10/17 00:56:51;;;;;;;8.40;1.13;;;;;;;12.98;46.25;96425.06;5099758;28;20451;-65
2022/10/17 00:59:20;;;;;;;0.33;0.33;;;;;;;12.99;46.23;96424.00;5097736;28;20438;-67
2022/10/17 01:02:02;;;;;;;0.87;0.87;;;;;;;13.12;45.78;96415.88;5097980;28;20449;-64
2022/10/17 01:04:29;;;;;;;0.20;0.20;;;;;;;12.95;46.23;96415.00;5098357;28;20444;-64
2022/10/17 01:06:56;;;;;;;0.87;0.87;;;;;;;13.03;45.73;96424.38;5094777;28;20436;-66
2022/10/17 01:09:25;;;;;;;0.30;0.30;;;;;;;13.04;45.89;96418.91;5105222;28;20451;-64
2022/10/17 01:12:15;;;;;;;3.50;1.47;;;;;;;12.97;46.09;96420.81;5089831;28;20441;-64
2022/10/17 01:14:55;;;;;;;0.80;0.47;;;;;;;12.96;45.76;96416.59;5091901;28;20433;-66
2022/10/17 01:17:34;;;;;;;1.90;1.20;;;;;;;13.18;45.50;96409.69;5110848;28;20464;-64
2022/10/17 01:20:36;;;;;;;0.70;0.70;;;;;;;13.18;44.79;96414.94;5111626;28;20440;-63
2022/10/17 01:23:40;;;;;;;0.97;0.97;;;;;;;13.14;45.08;96413.81;5104306;28;20526;-68
2022/10/17 01:26:16;;;;;;;6.13;2.43;;;;;;;12.98;45.23;96411.91;5098624;28;20448;-66
2022/10/17 01:28:59;;;;;;;0.67;0.57;;;;;;;12.95;45.36;96415.00;5097092;28;20456;-66
2022/10/17 01:31:44;;;;;;;0.40;0.40;;;;;;;12.79;45.45;96413.06;5094504;28;20492;-64
2022/10/17 01:34:21;;;;;;;1.30;1.23;;;;;;;12.68;45.93;96413.88;5096460;28;20520;-66
2022/10/17 01:36:55;;;;;;;1.40;1.30;;;;;;;12.56;46.31;96414.94;5097358;28;20460;-64
2022/10/17 01:39:54;;;;;;;5.23;1.30;;;;;;;11.27;49.75;96432.53;5111100;28;20487;-65
2022/10/17 01:42:32;;;;;;;0.13;0.13;;;;;;;11.51;49.11;96428.97;5097315;28;20512;-64
2022/10/17 01:45:15;;;;;;;0.93;0.93;;;;;;;12.04;48.23;96419.31;5101590;28;20816;-65
2022/10/17 01:47:45;;;;;;;0.40;0.40;;;;;;;12.31;47.25;96423.09;5102375;28;20543;-65
2022/10/17 01:50:33;;;;;;;0.33;0.33;;;;;;;12.39;46.86;96435.84;5098548;28;20971;-65
2022/10/17 01:53:20;;;;;;;0.40;0.40;;;;;;;12.45;46.28;96413.94;5099627;28;20535;-65
2022/10/17 01:55:49;;;;;;;0.77;0.67;;;;;;;12.11;47.01;96430.50;5094596;28;20535;-62
2022/10/17 01:58:27;;;;;;;1.00;0.93;;;;;;;11.99;47.85;96434.91;5089128;28;20536;-64
2022/10/17 02:00:57;;;;;;;0.00;0.00;;;;;;;11.62;48.93;96431.63;5094742;28;20863;-64
2022/10/17 02:03:27;;;;;;;0.63;0.63;;;;;;;12.11;47.55;96439.19;5097427;28;21034;-63
2022/10/17 02:05:54;;;;;;;1.43;1.10;;;;;;;10.89;50.60;96446.69;5101338;28;21015;-64
2022/10/17 02:08:40;;;;;;;1.17;1.07;;;;;;;10.62;51.80;96448.00;5089056;28;20442;-65
2022/10/17 02:11:25;;;;;;;0.57;0.57;;;;;;;11.64;49.15;96441.91;5104393;28;20580;-64
2022/10/17 02:14:09;;;;;;;0.20;0.20;;;;;;;11.99;48.16;96445.44;5089000;28;20437;-64
2022/10/17 02:16:50;;;;;;;0.40;0.40;;;;;;;12.00;47.76;96439.16;5103226;28;20513;-64
2022/10/17 02:20:08;;;;;;;0.10;0.10;;;;;;;12.28;47.28;96439.28;5105855;28;20981;-65
2022/10/17 02:23:02;;;;;;;0.10;0.10;;;;;;;12.27;46.90;96442.16;5105001;28;20942;-64
2022/10/17 02:26:06;;;;;;;1.20;0.63;;;;;;;12.44;46.50;96438.63;5099760;28;20456;-67
2022/10/17 02:28:43;;;;;;;1.60;0.87;;;;;;;12.35;46.27;96445.25;5099686;28;20444;-65
2022/10/17 02:31:24;;;;;;;0.07;0.07;;;;;;;12.32;46.78;96445.69;5108195;28;20679;-66
2022/10/17 02:34:00;;;;;;;0.60;0.60;;;;;;;12.24;46.75;96444.19;5099977;28;20453;-65
2022/10/17 02:36:39;;;;;;;4.43;2.07;;;;;;;12.25;46.52;96458.16;5093196;28;20437;-66
2022/10/17 02:39:08;;;;;;;1.37;1.27;;;;;;;12.25;46.66;96452.91;5100594;28;20456;-65
2022/10/17 02:41:36;;;;;;;1.90;1.43;;;;;;;12.18;46.52;96449.59;5096523;28;20518;-66
2022/10/17 02:44:05;;;;;;;1.03;0.93;;;;;;;12.36;46.33;96457.38;5091331;28;20516;-65
2022/10/17 02:46:34;;;;;;;0.77;0.73;;;;;;;12.23;46.47;96460.19;5095453;28;20467;-65
2022/10/17 02:49:01;;;;;;;0.90;0.73;;;;;;;12.09;46.52;96466.72;5090380;28;20473;-66
2022/10/17 02:51:35;;;;;;;0.63;0.63;;;;;;;11.79;47.40;96471.19;5090382;28;20516;-65
2022/10/17 02:54:18;;;;;;;0.47;0.47;;;;;;;11.92;46.69;96458.69;5092454;28;20441;-65
2022/10/17 02:56:58;;;;;;;1.97;0.67;;;;;;;11.90;47.18;96460.72;5099893;28;20824;-65
2022/10/17 02:59:29;;;;;;;1.97;1.80;;;;;;;12.01;46.81;96469.66;5089897;28;20447;-65
2022/10/17 03:01:56;;;;;;;0.30;0.30;;;;;;;12.09;46.63;96479.84;5099077;28;20449;-65
2022/10/17 03:04:23;;;;;;;2.47;1.23;;;;;;;11.96;46.74;96466.91;5088144;28;20532;-64
2022/10/17 03:06:50;;;;;;;0.67;0.40;;;;;;;12.06;46.75;96483.72;5093369;28;20456;-64
2022/10/17 03:09:17;;;;;;;1.07;1.03;;;;;;;11.87;46.65;96468.25;5095772;28;20436;-65
2022/10/17 03:11:44;;;;;;;1.60;1.00;;;;;;;11.95;46.62;96494.22;5097212;28;20481;-65
2022/10/17 03:14:11;;;;;;;2.87;1.43;;;;;;;11.75;46.99;96491.84;5107428;28;20471;-65
2022/10/17 03:16:39;;;;;;;2.17;2.00;;;;;;;11.84;46.88;96489.72;5096298;28;20462;-65
2022/10/17 03:19:06;;;;;;;1.07;0.77;;;;;;;11.77;47.08;96496.91;5106888;28;20448;-66
2022/10/17 03:21:36;;;;;;;0.50;0.50;;;;;;;11.67;47.32;96494.00;5087285;28;20437;-66
2022/10/17 03:24:05;;;;;;;3.90;2.70;;;;;;;11.79;47.06;96494.84;5087453;28;20437;-66
2022/10/17 03:26:32;;;;;;;0.83;0.83;;;;;;;11.88;46.65;96496.91;5092547;28;20445;-65
2022/10/17 03:28:59;;;;;;;12.10;2.43;;;;;;;11.85;46.99;96496.56;5100265;28;20448;-66
2022/10/17 03:31:27;;;;;;;1.30;1.20;;;;;;;11.88;46.78;96498.75;5092959;28;20515;-64
2022/10/17 03:33:55;;;;;;;1.47;1.37;;;;;;;11.78;46.52;96495.88;5104534;28;20437;-65
2022/10/17 03:36:22;;;;;;;1.10;0.97;;;;;;;11.78;46.06;96501.13;5095474;28;20876;-64
2022/10/17 03:38:53;;;;;;;2.63;1.47;;;;;;;11.69;46.22;96492.75;5097408;28;20444;-64
2022/10/17 03:41:21;;;;;;;1.23;1.13;;;;;;;11.68;46.94;96498.22;5090792;28;20494;-64
2022/10/17 03:43:48;;;;;;;1.23;1.13;;;;;;;11.39;47.08;96497.16;5087439;28;20983;-64
2022/10/17 03:46:16;;;;;;;0.83;0.83;;;;;;;11.55;46.86;96508.88;5102286;28;21226;-65
2022/10/17 03:48:43;;;;;;;1.83;1.73;;;;;;;11.40;46.65;96505.84;5089438;28;20444;-66
2022/10/17 03:51:10;;;;;;;0.60;0.60;;;;;;;11.04;48.64;96510.09;5097189;28;20984;-65
2022/10/17 03:53:43;;;;;;;1.13;1.13;;;;;;;11.21;47.54;96503.25;5091886;28;20832;-65
2022/10/17 03:56:14;;;;;;;1.53;1.20;;;;;;;11.37;47.51;96514.94;5099005;28;20445;-67
2022/10/17 03:58:43;;;;;;;0.60;0.60;;;;;;;10.98;48.32;96516.19;5087371;28;20846;-63
2022/10/17 04:01:13;;;;;;;1.20;1.10;;;;;;;11.14;48.43;96513.00;5090311;28;20457;-65
2022/10/17 04:03:41;;;;;;;1.13;0.90;;;;;;;11.21;48.24;96500.63;5091253;28;20444;-64
2022/10/17 04:06:11;;;;;;;1.53;1.43;;;;;;;11.46;47.36;96511.00;5091693;28;20873;-65
2022/10/17 04:08:41;;;;;;;3.40;1.47;;;;;;;11.42;47.71;96516.94;5092754;28;20947;-64
2022/10/17 04:11:18;;;;;;;2.10;1.80;;;;;;;10.52;51.14;96510.63;5101170;28;20912;-65
2022/10/17 04:13:52;;;;;;;3.40;2.13;;;;;;;10.76;50.52;96501.94;5088774;28;20438;-66
2022/10/17 04:16:20;;;;;;;1.33;1.23;;;;;;;11.44;48.18;96520.13;5087847;28;20490;-65
2022/10/17 04:18:56;;;;;;;3.00;2.03;;;;;;;11.16;47.78;96497.84;5099484;28;21016;-64
2022/10/17 04:21:26;;;;;;;1.53;1.23;;;;;;;11.28;47.92;96526.00;5092400;28;20471;-67
2022/10/17 04:23:59;;;;;;;0.17;0.17;;;;;;;11.31;47.81;96528.97;5105704;28;20978;-66
2022/10/17 04:26:50;;;;;;;0.60;0.57;;;;;;;11.45;47.49;96524.34;5094320;28;20445;-64
2022/10/17 04:29:18;;;;;;;21.13;1.90;;;;;;;11.45;47.65;96532.22;5092328;28;20448;-65
2022/10/17 04:31:50;;;;;;;0.27;0.27;;;;;;;11.30;47.57;96529.16;5107147;28;20565;-64
2022/10/17 04:34:58;;;;;;;2.23;1.83;;;;;;;11.18;48.09;96521.25;5086176;28;21161;-66
2022/10/17 04:37:28;;;;;;;3.50;2.87;;;;;;;11.15;48.77;96522.47;5090072;28;20843;-65
2022/10/17 04:39:56;;;;;;;5.73;2.67;;;;;;;10.94;48.96;96537.84;5087357;28;21049;-68
2022/10/17 04:42:23;;;;;;;1.07;0.97;;;;;;;10.90;48.43;96524.38;5089505;28;20544;-67
2022/10/17 04:44:52;;;;;;;2.60;2.40;;;;;;;10.98;49.27;96531.16;5099027;28;20472;-64
2022/10/17 04:47:23;;;;;;;1.90;1.73;;;;;;;11.22;48.48;96538.94;5105086;28;20830;-63
2022/10/17 04:49:51;;;;;;;11.70;7.50;;;;;;;11.54;47.49;96538.78;5087221;28;20444;-66
2022/10/17 04:52:20;;;;;;;2.33;2.20;;;;;;;11.31;47.06;96531.59;5087913;28;20473;-67
2022/10/17 04:54:48;;;;;;;1.10;0.80;;;;;;;11.19;46.84;96518.41;5091617;28;20524;-66
2022/10/17 04:57:17;;;;;;;2.80;1.87;;;;;;;11.43;47.34;96535.06;5100517;28;20441;-66
2022/10/17 04:59:57;;;;;;;0.83;0.83;;;;;;;11.18;47.46;96547.47;5093806;28;20444;-65
2022/10/17 05:02:45;;;;;;;1.13;0.90;;;;;;;11.26;46.89;96543.78;5090826;28;20521;-66
2022/10/17 05:05:13;;;;;;;0.90;0.50;;;;;;;11.41;46.93;96546.81;5094466;28;20437;-62
2022/10/17 05:07:44;;;;;;;7.37;6.03;;;;;;;11.48;47.31;96542.31;5092473;28;20567;-65
2022/10/17 05:10:17;;;;;;;5.77;3.80;;;;;;;11.49;47.33;96551.75;5107369;28;20948;-66
2022/10/17 05:12:48;;;;;;;0.60;0.60;;;;;;;11.53;47.01;96545.06;5107203;28;20444;-65
2022/10/17 05:15:17;;;;;;;4.13;3.40;;;;;;;11.44;47.38;96552.41;5107492;28;20770;-66
2022/10/17 05:17:44;;;;;;;3.80;2.90;;;;;;;11.15;49.66;96559.22;5091247;28;20433;-67
2022/10/17 05:20:11;;;;;;;4.72;1.52;;;;;;;11.61;47.26;96557.88;5090224;28;20449;-67
2022/10/17 05:22:39;;;;;;;1.90;1.23;;;;;;;11.56;47.24;96568.25;5108325;28;20680;-65
2022/10/17 05:25:10;;;;;;;1.63;1.27;;;;;;;11.59;47.38;96570.41;5110621;28;20447;-67
2022/10/17 05:27:37;;;;;;;0.40;0.40;;;;;;;11.50;47.42;96567.28;5110412;28;20523;-67
2022/10/17 05:30:05;;;;;;;4.43;2.97;;;;;;;11.61;47.34;96566.56;5110278;28;20490;-67
2022/10/17 05:32:34;;;;;;;1.03;0.93;;;;;;;11.65;47.01;96569.56;5109973;28;20856;-67
2022/10/17 05:35:03;;;;;;;0.80;0.80;;;;;;;11.60;47.04;96548.41;5097784;28;20444;-66
2022/10/17 05:37:31;;;;;;;0.80;0.80;;;;;;;11.61;47.32;96574.44;5096845;28;20441;-65
2022/10/17 05:39:59;;;;;;;3.00;2.03;;;;;;;11.38;47.74;96565.63;5089422;28;20539;-65
2022/10/17 05:42:28;;;;;;;2.03;1.53;;;;;;;11.70;47.68;96583.63;5090019;28;20445;-63
2022/10/17 05:44:57;;;;;;;3.57;2.07;;;;;;;11.70;47.64;96581.00;5089787;28;20469;-69
2022/10/17 05:47:25;;;;;;;2.07;1.53;;;;;;;11.76;47.51;96581.94;5103724;28;20432;-70
2022/10/17 05:49:52;;;;;;;13.97;4.83;;;;;;;11.81;47.60;96582.09;5101043;28;20510;-69
2022/10/17 05:52:25;;;;;;;1.13;1.00;;;;;;;11.95;47.38;96594.03;5089826;28;20483;-69
2022/10/17 05:55:04;;;;;;;1.40;1.30;;;;;;;11.86;47.86;96587.50;5106481;28;20433;-71
2022/10/17 05:57:32;;;;;;;1.70;1.23;;;;;;;11.78;48.06;96595.66;5089373;28;20449;-69
2022/10/17 06:00:00;;;;;;;7.67;1.23;;;;;;;11.85;48.14;96602.44;5102236;28;20440;-70
2022/10/17 06:02:39;;;;;;;5.30;3.83;;;;;;;12.41;46.76;96607.31;5097372;28;20432;-69
2022/10/17 06:05:07;;;;;;;2.47;2.27;;;;;;;12.71;46.07;96602.81;5097880;28;20449;-69
2022/10/17 06:07:34;;;;;;;0.73;0.73;;;;;;;12.42;46.82;96606.31;5093915;28;20437;-70
2022/10/17 06:10:03;;;;;;;3.20;2.87;;;;;;;12.54;46.95;96601.88;5089606;28;20499;-68
2022/10/17 06:12:30;;;;;;;1.60;1.47;;;;;;;11.87;48.28;96594.34;5106456;28;20475;-71
2022/10/17 06:14:58;;;;;;;2.90;2.70;;;;;;;12.32;47.51;96613.94;5109976;28;20438;-69
2022/10/17 06:17:25;;;;;;;1.47;1.37;;;;;;;11.60;48.87;96598.28;5107711;28;20444;-70
2022/10/17 06:19:52;;;;;;;1.47;1.37;;;;;;;12.09;48.19;96611.22;5089016;28;20437;-72
2022/10/17 06:22:19;;;;;;;1.57;1.47;;;;;;;11.22;49.99;96617.66;5088874;28;20449;-71
2022/10/17 06:24:46;;;;;;;1.47;1.37;;;;;;;11.79;49.24;96616.47;5094929;28;20436;-70
2022/10/17 06:27:13;;;;;;;2.60;1.80;;;;;;;11.53;49.43;96624.59;5098556;28;20510;-69
2022/10/17 06:29:40;;;;;;;1.33;1.23;;;;;;;11.42;50.14;96632.41;5093578;28;20463;-69
2022/10/17 06:32:07;;;;;;;3.00;2.80;;;;;;;11.92;49.33;96633.88;5098365;28;20479;-69
2022/10/17 06:34:42;;;;;;;3.60;2.83;;;;;;;11.82;49.21;96633.59;5091418;28;20456;-68
2022/10/17 06:37:09;;;;;;;2.87;2.63;;;;;;;12.32;48.48;96629.69;5089048;28;20959;-68
2022/10/17 06:39:38;;;;;;;2.20;1.57;;;;;;;12.82;47.01;96624.91;5088834;28;20518;-69
2022/10/17 06:42:10;;;;;;;2.43;2.30;;;;;;;12.05;48.22;96633.72;5089932;28;20498;-71
2022/10/17 06:44:52;;;;;;;1.63;1.53;;;;;;;12.69;47.62;96636.44;5109315;28;20834;-71
2022/10/17 06:47:40;;;;;;;2.30;1.83;;;;;;;13.20;46.45;96622.66;5109949;28;20435;-70
2022/10/17 06:50:21;;;;;;;5.77;3.53;;;;;;;12.85;46.23;96633.13;5105962;28;20492;-71
2022/10/17 06:53:08;;;;;;;3.47;1.90;;;;;;;13.47;44.85;96618.53;5100317;28;20452;-71
2022/10/17 06:55:52;;;;;;;2.87;2.67;;;;;;;12.34;47.46;96622.41;5108956;28;20436;-71
2022/10/17 06:58:43;;;;;;;0.83;0.83;;;;;;;13.08;45.96;96635.81;5089831;28;20496;-71
2022/10/17 07:01:22;;;;;;;1.57;1.47;;;;;;;12.54;47.26;96643.94;5105403;28;20495;-70
2022/10/17 07:03:53;;;;;;;3.13;2.70;;;;;;;12.19;48.19;96637.75;5090216;28;20449;-69
2022/10/17 07:06:25;;;;;;;3.67;2.50;;;;;;;12.26;48.15;96633.25;5100180;28;20548;-71
2022/10/17 07:08:55;;;;;;;2.97;2.67;;;;;;;13.18;46.17;96603.66;5088043;28;20539;-70
2022/10/17 07:11:22;;;;;;;2.73;2.37;;;;;;;12.84;47.31;96625.47;5095843;28;20475;-70
2022/10/17 07:13:51;;;;;;;11.30;2.13;;;;;;;12.49;48.08;96620.16;5095542;28;20429;-71
2022/10/17 07:16:21;;;;;;;2.37;2.17;;;;;;;12.37;48.79;96631.66;5108216;28;20451;-70
2022/10/17 07:18:59;;;;;;;2.43;2.20;;;;;;;13.06;47.79;96637.88;5108393;28;20816;-71
2022/10/17 07:21:32;;;;;;;2.93;1.13;;;;;;;13.71;46.55;96621.91;5107991;28;20541;-69
2022/10/17 07:24:06;;;;;;;1.17;1.17;;;;;;;13.74;46.00;96605.66;5107684;28;21271;-69
2022/10/17 07:26:33;;;;;;;4.00;2.60;;;;;;;14.08;45.12;96623.19;5087821;28;20441;-70
2022/10/17 07:29:01;;;;;;;2.73;2.27;;;;;;;13.76;46.03;96633.34;5100954;28;20475;-70
2022/10/17 07:31:38;;;;;;;1.63;1.50;;;;;;;13.63;46.03;96627.56;5087417;28;21014;-71
2022/10/17 07:34:05;;;;;;;2.33;1.87;;;;;;;14.09;45.60;96635.31;5087822;28;20433;-70
2022/10/17 07:36:31;;;;;;;0.50;0.50;;;;;;;14.80;44.16;96635.56;5088059;28;20932;-71
2022/10/17 07:39:01;;;;;;;5.83;3.03;;;;;;;14.28;44.47;96635.97;5099023;28;20864;-70
2022/10/17 07:41:29;;;;;;;0.87;0.87;;;;;;;13.92;44.53;96627.34;5089719;28;20968;-70
2022/10/17 07:43:56;;;;;;;7.83;3.13;;;;;;;14.83;43.27;96629.03;5104934;28;20448;-71
2022/10/17 07:46:31;;;;;;;2.57;2.37;;;;;;;14.81;42.56;96625.81;5100240;28;20443;-70
2022/10/17 07:48:58;;;;;;;4.00;1.83;;;;;;;14.87;43.46;96628.28;5054567;28;20506;-69
2022/10/17 07:51:25;;;;;;;1.07;1.00;;;;;;;15.12;42.51;96618.16;5087417;28;20895;-71
2022/10/17 07:53:52;;;;;;;0.97;0.87;;;;;;;15.83;41.53;96621.75;5106824;28;20501;-69
2022/10/17 07:56:23;;;;;;;0.60;0.60;;;;;;;15.11;42.27;96632.38;5109639;28;20444;-70
2022/10/17 07:58:51;;;;;;;1.30;1.20;;;;;;;15.60;41.74;96636.00;5095037;28;20441;-70
2022/10/17 08:01:18;;;;;;;0.53;0.53;;;;;;;16.60;39.59;96619.72;5109047;28;20432;-70
2022/10/17 08:03:49;;;;;;;0.80;0.60;;;;;;;16.98;39.70;96622.97;5109481;28;20429;-71
2022/10/17 08:06:17;;;;;;;1.67;0.77;;;;;;;16.82;38.57;96623.88;5109363;28;20433;-71
2022/10/17 08:08:43;;;;;;;0.47;0.47;;;;;;;16.94;38.15;96616.56;5109238;28;20531;-71
2022/10/17 08:11:13;;;;;;;0.50;0.50;;;;;;;16.83;39.43;96614.88;5102811;28;20456;-71
2022/10/17 08:13:40;;;;;;;0.20;0.20;;;;;;;16.21;38.97;96605.81;5089083;28;20625;-69
2022/10/17 08:16:10;;;;;;;0.47;0.47;;;;;;;17.37;38.11;96609.44;5107349;28;20472;-71
2022/10/17 08:18:39;;;;;;;1.10;1.10;;;;;;;17.63;37.51;96597.94;5100289;28;20444;-68
2022/10/17 08:21:07;;;;;;;0.70;0.70;;;;;;;17.55;36.90;96593.16;5105200;28;20473;-69
2022/10/17 08:23:35;;;;;;;7.20;2.17;;;;;;;17.38;38.59;96590.63;5099372;28;20479;-70
2022/10/17 08:26:03;;;;;;;1.33;1.33;;;;;;;17.15;39.16;96596.34;5108876;28;20523;-69
2022/10/17 08:28:34;;;;;;;0.67;0.67;;;;;;;17.48;38.21;96585.41;5109106;28;20440;-70
2022/10/17 08:31:06;;;;;;;1.00;1.00;;;;;;;17.35;38.95;96593.00;5108557;28;20440;-70
2022/10/17 08:33:33;;;;;;;1.47;1.33;;;;;;;17.91;37.16;96593.03;5108676;28;20451;-70
2022/10/17 08:36:00;;;;;;;1.87;1.77;;;;;;;17.76;37.19;96594.81;5093736;28;20523;-69
2022/10/17 08:38:31;;;;;;;0.63;0.57;;;;;;;17.31;38.03;96590.06;5095476;28;20440;-72
2022/10/17 08:41:12;;;;;;;0.50;0.40;;;;;;;18.33;36.65;96566.34;5103112;28;20437;-70
2022/10/17 08:43:54;;;;;;;0.33;0.33;;;;;;;18.40;35.39;96596.09;5101565;28;20448;-70
2022/10/17 08:46:21;;;;;;;3.30;2.30;;;;;;;17.58;37.36;96590.78;5095977;28;20443;-69
2022/10/17 08:48:50;;;;;;;0.33;0.33;;;;;;;18.18;36.73;96593.66;5108806;28;20531;-70
2022/10/17 08:51:23;;;;;;;2.10;1.67;;;;;;;19.17;34.90;96583.41;5100250;28;20441;-69
2022/10/17 08:54:00;;;;;;;2.50;2.30;;;;;;;18.90;36.06;96592.72;5095186;28;20455;-69
2022/10/17 08:56:38;;;;;;;3.80;2.13;;;;;;;19.63;34.70;96597.41;5112508;28;20436;-70
2022/10/17 08:59:27;;;;;;;3.07;2.80;;;;;;;18.99;35.72;96591.13;5099082;28;20460;-68
2022/10/17 09:02:27;;;;;;;1.33;1.20;;;;;;;19.67;34.34;96602.97;5096901;28;20448;-69
2022/10/17 09:05:25;;;;;;;1.03;1.03;;;;;;;19.71;34.96;96594.16;5101751;28;20490;-69
2022/10/17 09:07:55;;;;;;;1.00;1.00;;;;;;;20.25;32.94;96585.44;5104477;28;20490;-69
2022/10/17 09:10:31;;;;;;;0.27;0.27;;;;;;;19.23;34.62;96598.25;5105716;28;20432;-70
2022/10/17 09:13:30;;;;;;;2.33;1.20;;;;;;;20.07;34.14;96592.19;5099095;28;20471;-69
2022/10/17 09:16:19;;;;;;;1.03;1.03;;;;;;;20.10;33.56;96592.41;5092376;28;20857;-70
2022/10/17 09:19:02;;;;;;;1.17;1.10;;;;;;;20.41;32.29;96586.94;5112668;28;20464;-69
2022/10/17 09:21:37;;;;;;;0.80;0.80;;;;;;;20.34;33.47;96589.94;5105011;28;20444;-69
2022/10/17 09:24:14;;;;;;;0.50;0.50;;;;;;;19.51;32.71;96594.22;5092139;28;20452;-69
2022/10/17 09:26:44;;;;;;;0.87;0.87;;;;;;;19.57;33.95;96579.88;5112187;28;20962;-71
2022/10/17 09:29:19;;;;;;;0.97;0.90;;;;;;;20.92;31.82;96588.16;5097730;28;20872;-69
2022/10/17 09:31:57;;;;;;;0.33;0.33;;;;;;;20.39;31.05;96578.44;5104496;28;21000;-68
2022/10/17 09:34:27;;;;;;;0.93;0.93;;;;;;;20.48;30.96;96579.44;5092664;28;20444;-69
2022/10/17 09:36:54;;;;;;;0.90;0.90;;;;;;;20.29;31.44;96575.84;5103887;27;20464;-68
2022/10/17 09:39:30;;;;;;;1.37;1.27;;;;;;;21.01;31.08;96565.19;5106175;28;20497;-68
2022/10/17 09:42:00;;;;;;;0.67;0.67;;;;;;;21.35;29.79;96576.59;5091439;28;20452;-68
2022/10/17 09:44:34;;;;;;;0.53;0.53;;;;;;;21.80;28.37;96567.34;5105866;28;20230;-69
2022/10/17 09:47:23;;;;;;;2.00;1.33;;;;;;;22.03;28.62;96567.31;5104630;28;20452;-69
2022/10/17 09:49:50;;;;;;;0.50;0.50;;;;;;;21.88;28.16;96558.69;5091568;28;20187;-68
2022/10/17 09:52:32;;;;;;;0.83;0.83;;;;;;;21.99;28.31;96568.16;5090976;28;20866;-68
2022/10/17 09:55:16;;;;;;;0.20;0.20;;;;;;;22.23;27.88;96555.53;5104879;28;21255;-69
2022/10/17 09:58:00;;;;;;;0.20;0.20;;;;;;;21.83;28.08;96559.56;5098952;28;20198;-69
2022/10/17 10:00:33;;;;;;;0.20;0.20;;;;;;;22.26;28.91;96544.31;5111418;28;20562;-68
2022/10/17 10:03:26;;;;;;;0.20;0.20;;;;;;;22.01;27.45;96555.31;5110362;28;20201;-68
2022/10/17 10:05:59;;;;;;;0.40;0.40;;;;;;;21.72;26.58;96549.25;5109365;28;20194;-69
2022/10/17 10:08:48;;;;;;;0.90;0.90;;;;;;;21.46;26.74;96545.28;5111095;28;20206;-71
2022/10/17 10:11:16;;;;;;;0.77;0.77;;;;;;;22.21;26.42;96540.91;5090651;28;20187;-69
2022/10/17 10:13:46;;;;;;;0.10;0.10;;;;;;;22.28;26.23;96536.78;5104192;28;20309;-69
2022/10/17 10:16:16;;;;;;;0.57;0.57;;;;;;;22.48;25.56;96533.03;5111146;28;20448;-71
2022/10/17 10:18:44;;;;;;;0.67;0.67;;;;;;;22.52;25.01;96518.78;5098648;28;20192;-68
2022/10/17 10:21:21;;;;;;;0.50;0.40;;;;;;;22.68;24.84;96532.75;5110397;28;20194;-69
2022/10/17 10:24:12;;;;;;;0.33;0.33;;;;;;;22.98;24.03;96535.69;5110998;28;20561;-69
2022/10/17 10:26:47;;;;;;;0.50;0.50;;;;;;;22.86;24.16;96527.31;5095347;28;20233;-67
2022/10/17 10:29:38;;;;;;;1.53;0.97;;;;;;;22.80;23.64;96522.38;5096895;28;20650;-68
2022/10/17 10:32:27;;;;;;;1.80;0.97;;;;;;;23.06;23.87;96520.84;5110771;28;20210;-68
2022/10/17 10:35:22;;;;;;;1.00;0.47;;;;;;;23.08;23.09;96524.03;5096368;28;20677;-68
2022/10/17 10:37:52;;;;;;;0.53;0.40;;;;;;;22.58;23.39;96504.28;5094880;28;20214;-68
2022/10/17 10:40:21;;;;;;;0.27;0.27;;;;;;;22.62;23.56;96515.19;5090440;28;20287;-68
2022/10/17 10:42:51;;;;;;;0.13;0.13;;;;;;;22.41;23.86;96520.03;5090338;28;20187;-67
2022/10/17 10:45:38;;;;;;;0.20;0.20;;;;;;;22.35;23.10;96515.84;5102953;28;20230;-68
2022/10/17 10:48:17;;;;;;;0.90;0.57;;;;;;;22.54;24.53;96513.94;5110934;28;20226;-69
2022/10/17 10:50:44;;;;;;;0.40;0.40;;;;;;;22.59;21.81;96516.56;5105595;27;20690;-68
2022/10/17 10:53:48;;;;;;;0.20;0.20;;;;;;;22.91;21.86;96503.19;5102551;28;20616;-69
2022/10/17 10:56:22;;;;;;;0.80;0.80;;;;;;;23.54;22.73;96481.97;5090689;28;20195;-70
2022/10/17 10:59:07;;;;;;;0.20;0.20;;;;;;;23.00;24.16;96496.09;5090020;28;20217;-70
2022/10/17 11:01:52;;;;;;;0.50;0.50;;;;;;;22.85;22.63;96495.53;5101325;28;20741;-69
2022/10/17 11:04:35;;;;;;;0.93;0.70;;;;;;;23.29;22.85;96481.63;5104645;28;20232;-68
2022/10/17 11:07:39;;;;;;;1.43;0.80;;;;;;;23.31;23.26;96495.53;5090277;28;20232;-68
2022/10/17 11:10:36;;;;;;;0.20;0.20;;;;;;;23.06;22.58;96489.53;5101356;28;20202;-67
2022/10/17 11:13:16;;;;;;;1.30;0.53;;;;;;;23.76;21.61;96487.38;5096968;28;20217;-68
2022/10/17 11:15:48;;;;;;;0.83;0.83;;;;;;;23.99;22.67;96482.88;5107660;28;20198;-68
2022/10/17 11:18:25;;;;;;;0.40;0.40;;;;;;;23.76;22.16;96481.22;5089636;28;20194;-68
2022/10/17 11:21:10;;;;;;;0.40;0.40;;;;;;;24.36;22.44;96473.78;5103696;28;20681;-69
2022/10/17 11:24:05;;;;;;;0.90;0.90;;;;;;;23.96;22.26;96486.16;5100055;28;20194;-69
2022/10/17 11:26:59;;;;;;;0.63;0.57;;;;;;;24.39;23.01;96473.97;5079067;28;20636;-70
2022/10/17 11:29:40;;;;;;;8.00;1.17;;;;;;;24.47;21.69;96467.06;5108255;28;20604;-69
2022/10/17 11:32:18;;;;;;;0.37;0.33;;;;;;;24.25;22.24;96470.50;5109577;28;20651;-68
2022/10/17 11:34:57;;;;;;;1.60;0.77;;;;;;;23.98;22.77;96467.91;5109425;28;20611;-69
2022/10/17 11:37:33;;;;;;;0.30;0.30;;;;;;;23.90;22.72;96469.41;5109796;28;20298;-69
2022/10/17 11:40:29;;;;;;;0.90;0.90;;;;;;;24.12;22.06;96462.53;5089707;28;20687;-68
2022/10/17 11:43:01;;;;;;;0.83;0.60;;;;;;;24.48;21.02;96464.09;5096108;28;20657;-70
2022/10/17 11:45:35;;;;;;;0.50;0.50;;;;;;;24.83;20.76;96457.88;5109047;28;20230;-69
2022/10/17 11:48:11;;;;;;;0.63;0.63;;;;;;;24.72;22.02;96451.19;5096546;28;20197;-70
2022/10/17 11:50:46;;;;;;;0.93;0.53;;;;;;;24.58;20.18;96449.66;5093268;28;20202;-69
2022/10/17 11:53:45;;;;;;;0.50;0.50;;;;;;;23.62;20.45;96449.16;5088668;28;20225;-67
2022/10/17 11:56:20;;;;;;;0.93;0.70;;;;;;;24.66;21.52;96424.75;5097941;28;20198;-69
2022/10/17 11:59:34;;;;;;;1.00;0.67;;;;;;;25.64;20.77;96434.16;5109070;28;20235;-69
2022/10/17 12:02:12;;;;;;;0.20;0.20;;;;;;;26.01;20.23;96431.69;5105483;28;20230;-69
2022/10/17 12:05:00;;;;;;;0.23;0.23;;;;;;;24.94;20.38;96432.34;5100604;28;20194;-68
2022/10/17 12:07:46;;;;;;;0.17;0.17;;;;;;;25.29;20.67;96438.63;5092752;28;20237;-69
2022/10/17 12:10:32;;;;;;;0.10;0.10;;;;;;;26.52;20.34;96428.22;5110269;28;20209;-68